Date,TemperatureHighF,TemperatureAvgF,TemperatureLowF,DewpointHighF,DewpointAvgF,DewpointLowF,HumidityHigh,HumidityAvg,HumidityLow,PressureMaxIn,PressureMinIn,WindSpeedMaxMPH,WindSpeedAvgMPH,GustSpeedMaxMPH,PrecipitationSumIn
2013-5-1,82.0,75.1,69.0,69.0,63.2,59.0,81,67,50,0.00,40.00,6,3,12,0.06
2013-5-2,82.0,76.7,72.0,68.0,64.3,60.0,76,66,53,0.00,40.00,6,3,13,0.00
2013-5-3,79.0,73.8,69.0,70.0,65.5,62.0,94,76,59,0.00,40.00,4,2,11,1.13
2013-5-4,76.0,72.4,69.0,68.0,66.2,63.0,92,81,71,0.00,40.00,3,2,9,0.18
2013-5-5,81.0,74.8,68.0,66.0,63.2,59.0,79,68,53,0.00,40.00,7,3,14,0.05
2013-5-6,81.0,74.9,69.0,68.0,63.7,55.0,83,69,52,0.00,40.00,6,3,12,0.00
2013-5-7,83.0,76.2,68.0,66.0,62.9,59.0,79,64,52,0.00,40.00,5,3,11,0.00
2013-5-8,83.0,77.2,70.0,68.0,62.7,54.0,70,61,51,0.00,40.00,4,3,10,0.00
2013-5-9,84.0,76.2,72.0,72.0,66.4,60.0,94,73,59,0.00,40.00,5,2,11,0.04
2013-5-10,83.0,74.6,70.0,73.0,65.2,-99.9,91,78,58,0.00,40.00,4,2,10,0.02
2013-5-11,81.0,76.2,72.0,71.0,67.0,-99.9,87,76,60,0.00,40.00,6,3,12,0.00
2013-5-12,83.0,76.2,72.0,72.0,68.6,65.0,94,78,64,0.00,40.00,5,3,11,0.15
2013-5-13,82.0,75.0,71.0,72.0,69.2,63.0,96,83,62,0.00,40.00,5,2,11,0.39
2013-5-14,80.0,74.8,72.0,71.0,67.3,63.0,89,78,67,0.00,40.00,4,2,10,0.01
2013-5-15,84.0,77.3,71.0,69.0,65.0,61.0,76,66,57,0.00,40.00,5,3,12,0.01
2013-5-16,83.0,71.4,71.0,66.0,46.7,-99.9,70,62,53,0.00,40.00,6,4,14,0.00
2013-5-17,83.0,76.6,71.0,66.0,58.5,-99.9,66,58,43,0.00,40.00,5,4,12,0.00
2013-5-18,82.0,76.4,70.0,66.0,61.7,54.0,72,61,48,0.00,40.00,5,3,11,0.00
2013-5-19,83.0,77.4,72.0,68.0,63.5,58.0,73,63,54,0.00,40.00,7,4,13,0.00
2013-5-20,83.0,76.6,69.0,66.0,62.4,54.0,73,62,54,0.00,40.00,5,3,10,0.00
2013-5-21,84.0,77.6,70.0,70.0,61.7,54.0,86,59,46,0.00,40.00,5,4,11,0.00
2013-5-22,84.0,77.7,71.0,71.0,65.2,57.0,88,66,49,0.00,40.00,5,4,12,0.02
2013-5-23,83.0,76.4,71.0,70.0,66.0,58.0,88,70,56,0.00,40.00,5,3,10,0.02
2013-5-24,80.0,75.1,72.0,71.0,65.7,58.0,91,73,60,0.00,40.00,4,3,11,0.12
2013-5-25,83.0,76.3,72.0,70.0,66.7,63.0,90,73,55,0.00,40.00,4,3,10,0.09
2013-5-26,82.0,75.7,71.0,71.0,66.4,62.0,94,73,56,0.00,40.00,5,3,11,0.93
2013-5-27,83.0,76.1,70.0,69.0,65.1,61.0,80,69,56,0.00,40.00,5,3,10,0.93
2013-5-28,83.0,77.2,70.0,69.0,64.5,58.0,75,65,49,0.00,40.00,5,3,11,0.00
2013-5-29,84.0,78.0,71.0,70.0,65.4,58.0,78,66,54,0.00,40.00,6,3,12,0.00
2013-5-30,84.0,77.6,73.0,70.0,66.6,61.0,83,70,57,0.00,40.00,5,3,10,0.00
2013-5-31,83.0,77.1,73.0,72.0,66.6,63.0,86,70,58,0.00,40.00,5,3,11,0.01